Main page
METAR-TAF:

METAR-TAF

Airports :

Mitiga International Airport

Tripoli, Libya

latitude: 32-54N, longitude: 13-17E, elevation: 11 m

METAR: missing

Time: 10:52 (08:52 UTC)

Forecast

The report was made 27 hours and 52 minutes ago, at 05:00 UTC
Forecast valid from 20 at 06 UTC to 21 at 06 UTC
Wind 10 kt from the North
Visibility: 8000 m
Scattered clouds at a height of 2500 ft
Broken clouds at a height of 7000 ft
Probability 30% :
Temporary
from 20 at 06 UTC to 21 at 06 UTC
Visibility: 5000 m
Broken clouds at a height of 2300 ft
Broken clouds at a height of 7000 ft
rain showers
Becoming
from 20 at 12 UTC to 20 at 14 UTC
Wind 12 kt from the West

TAF: HLLM 200500Z 2006/2106 35010KT 8000 SCT025 BKN070 PROB30 TEMPO 2006/2106 5000 SHRA BKN023 BKN070 BECMG 2012/2014 27012KT

Weather observations and forecasts of more than 4000 airports (METAR and TAF reports).

The available stations are represented by yellow and red dots on the map.

Hover mouse over dot to see the name of the station.

Then click to see weather observations and forecasts.

To change the map : click on the green buttons with a black cross to zoom in, on the green button with a dash to zoom out, or on the green arrows for adjacent maps.


METAR-TAF: